Accueil
METAR-TAF:

METAR-TAF

Aéroports :

Varsovie, Pologne

Aéroport de Varsovie-Chopin

latitude: 52-10N, longitude: 020-58E, altitude: 106 m

Observation

Le bulletin a été fait il y a 2 heures et 16 minutes, à 15:00 UTC
Vent 11 kt de est
Température 3°C
Humidité 44%
Pression 1020 hPa
Visibilité 10 km ou plus
pas de nuages en-dessous de 1500 mètres et pas de cumulonimbus.

METAR: EPWA 201500Z 10011KT CAVOK 03/M08 Q1020 NOSIG

Heure: 18:16 (17:16 UTC)

Prévision

Le bulletin a été fait il y a 5 heures et 46 minutes, à 11:30 UTC
Prévision valable du 20 à 12 UTC au 21 à 12 UTC
Vent 10 kt de est
Visibilité 10 km ou plus
pas de nuages en-dessous de 1500 mètres et pas de cumulonimbus.

TAF: EPWA 201130Z 2012/2112 10010KT CAVOK

Observations et prévisions météorologiques de plus de 4000 aéroports (messages METAR et TAF).

Les stations disponibles sont représentées par des disques jaunes et rouges sur la carte.

Passer la souris dessus pour voir le nom de la station.

Cliquer dessus pour voir les observations et prévisions météorologiques.

Pour changer de carte: cliquez sur les boutons verts avec une croix noire pour zoomer, sur le bouton vert avec un tiret pour effectuer un zoom arrière, ou sur les flèches vertes pour les cartes adjacentes.


METAR-TAF: